Privodino, Russia
Current Conditions -  °F | °C
As of 10:00 PM on Saturday 25 Oct 2014 (Local Time) from UUYY Reporting Station
Snow Showers Snow Showers  
Wind Chill: 15°   Ceiling: 2600
Heat Index: 21°   Visibility: 6mi
Dew Point: 16°   Wind: 4mph
Humidity: 80%   Direction: NA
Pressure: 30.39"   Gusts: NA
Location:  61.08°N, 46.5°E
Report Text: UUYY 251900Z VRB02MPS 9999 -SHSN BKN026CB OVC066 M06/M09 Q1029 NOSIG 0182//49 RMK QFE763/1017
Loading
Personal Weather Stations






























Interactive Weather Map
Tropical Storm Tracking
New forecast layout! Learn more

10-Day Weather Forecast

Advertisements
Track Severe Weather on mobile